createdAt,value
2022-10-14T00:00:08.293Z,984.05
2022-10-14T00:01:08.287Z,984.05
2022-10-14T00:02:08.308Z,984.05
2022-10-14T00:03:08.283Z,984.04
2022-10-14T00:04:08.250Z,984.04
2022-10-14T00:05:08.242Z,984.05
2022-10-14T00:06:08.228Z,984.04
2022-10-14T00:07:08.221Z,984.04
2022-10-14T00:08:08.212Z,984.04
2022-10-14T00:09:08.214Z,984.03
2022-10-14T00:10:08.185Z,984.02
2022-10-14T00:11:08.180Z,984.00
2022-10-14T00:12:08.167Z,983.99
2022-10-14T00:13:08.158Z,983.98
2022-10-14T00:14:08.148Z,983.98
2022-10-14T00:15:08.146Z,983.98
2022-10-14T00:16:08.125Z,983.98
2022-10-14T00:17:08.124Z,983.98
2022-10-14T00:18:08.117Z,983.98
2022-10-14T00:19:08.100Z,983.97
2022-10-14T00:20:08.103Z,983.97
2022-10-14T00:21:08.087Z,983.97
2022-10-14T00:22:08.062Z,983.96
2022-10-14T00:23:08.055Z,983.96
2022-10-14T00:24:08.040Z,983.96
2022-10-14T00:25:08.043Z,983.96
2022-10-14T00:26:08.024Z,983.96
2022-10-14T00:27:08.015Z,983.97
2022-10-14T00:28:08.004Z,983.99
2022-10-14T00:29:07.994Z,984.00
2022-10-14T00:30:07.988Z,984.00
2022-10-14T00:31:07.971Z,984.01
2022-10-14T00:32:07.963Z,984.00
2022-10-14T00:33:07.949Z,984.01
2022-10-14T00:34:07.954Z,984.00
2022-10-14T00:35:07.938Z,984.00
2022-10-14T00:36:07.925Z,984.00
2022-10-14T00:37:07.906Z,984.00
2022-10-14T00:38:07.924Z,984.00
2022-10-14T00:39:07.888Z,984.00
2022-10-14T00:40:07.878Z,984.00
2022-10-14T00:41:07.864Z,984.00
2022-10-14T00:42:07.853Z,984.00
2022-10-14T00:43:07.847Z,984.00
2022-10-14T00:44:07.840Z,984.00
2022-10-14T00:45:07.825Z,984.01
2022-10-14T00:46:07.810Z,984.02
2022-10-14T00:47:07.802Z,984.02
2022-10-14T00:48:07.788Z,984.04
2022-10-14T00:49:07.794Z,984.06
2022-10-14T00:50:07.769Z,984.06
2022-10-14T00:51:07.761Z,984.07
2022-10-14T00:52:07.747Z,984.06
2022-10-14T00:53:07.742Z,984.06
2022-10-14T00:54:07.739Z,984.05
2022-10-14T00:55:07.796Z,984.05
2022-10-14T00:56:07.704Z,984.05
2022-10-14T00:57:07.697Z,984.04
2022-10-14T00:58:07.683Z,984.03
2022-10-14T00:59:07.685Z,984.03
2022-10-14T01:00:07.664Z,984.01
2022-10-14T01:01:07.707Z,983.99
2022-10-14T01:02:07.643Z,983.97
2022-10-14T01:03:07.632Z,983.95
2022-10-14T01:04:07.628Z,983.93
2022-10-14T01:05:07.610Z,983.92
2022-10-14T01:06:07.600Z,983.91
2022-10-14T01:07:07.590Z,983.89
2022-10-14T01:08:07.690Z,983.87
2022-10-14T01:09:07.580Z,983.87
2022-10-14T01:10:07.556Z,983.87
2022-10-14T01:11:07.549Z,983.88
2022-10-14T01:12:27.929Z,983.86
2022-10-14T01:13:07.532Z,983.86
2022-10-14T01:14:07.515Z,983.87
2022-10-14T01:15:07.519Z,983.89
2022-10-14T01:16:07.502Z,983.89
2022-10-14T01:17:07.488Z,983.87
2022-10-14T01:18:07.475Z,983.86
2022-10-14T01:19:07.467Z,983.86
2022-10-14T01:20:07.456Z,983.84
2022-10-14T01:21:07.464Z,983.83
2022-10-14T01:22:07.527Z,983.83
2022-10-14T01:23:07.536Z,983.83
2022-10-14T01:24:07.413Z,983.83
2022-10-14T01:25:07.402Z,983.83
2022-10-14T01:26:07.392Z,983.82
2022-10-14T01:27:07.403Z,983.81
2022-10-14T01:28:07.365Z,983.79
2022-10-14T01:29:07.357Z,983.79
2022-10-14T01:30:07.347Z,983.81
2022-10-14T01:31:07.341Z,983.82
2022-10-14T01:32:07.323Z,983.80
2022-10-14T01:33:07.325Z,983.81
2022-10-14T01:34:07.313Z,983.83
2022-10-14T01:35:07.293Z,983.84
2022-10-14T01:36:07.281Z,983.86
2022-10-14T01:37:07.283Z,983.86
2022-10-14T01:38:07.269Z,983.87
2022-10-14T01:39:07.262Z,983.86
2022-10-14T01:40:07.240Z,983.87
2022-10-14T01:41:07.230Z,983.88
2022-10-14T01:42:07.215Z,983.89
2022-10-14T01:43:07.218Z,983.90
2022-10-14T01:44:07.194Z,983.92
2022-10-14T01:45:07.185Z,983.93
2022-10-14T01:46:07.173Z,983.94
2022-10-14T01:47:07.180Z,983.95
2022-10-14T01:48:07.162Z,983.95
2022-10-14T01:49:07.162Z,983.93
2022-10-14T01:50:07.133Z,983.92
2022-10-14T01:51:07.127Z,983.91
2022-10-14T01:52:07.123Z,983.91
2022-10-14T01:53:07.113Z,983.91
2022-10-14T01:54:07.089Z,983.91
2022-10-14T01:55:07.080Z,983.91
2022-10-14T01:56:07.065Z,983.90
2022-10-14T01:57:07.076Z,983.90
2022-10-14T01:58:07.042Z,983.90
2022-10-14T01:59:07.044Z,983.91
2022-10-14T02:00:07.031Z,983.90
2022-10-14T02:01:07.026Z,983.86
2022-10-14T02:02:07.116Z,983.84
2022-10-14T02:03:06.994Z,983.81
2022-10-14T02:04:06.987Z,983.78
2022-10-14T02:05:06.973Z,983.77
2022-10-14T02:06:06.968Z,983.77
2022-10-14T02:07:06.960Z,983.77
2022-10-14T02:08:06.949Z,983.77
2022-10-14T02:09:06.931Z,983.76
2022-10-14T02:10:06.915Z,983.76
2022-10-14T02:11:06.908Z,983.76
2022-10-14T02:12:06.894Z,983.76
2022-10-14T02:13:06.897Z,983.75
2022-10-14T02:14:06.873Z,983.76
2022-10-14T02:15:06.864Z,983.76
2022-10-14T02:16:06.851Z,983.75
2022-10-14T02:17:06.843Z,983.73
2022-10-14T02:18:06.840Z,983.72
2022-10-14T02:19:06.841Z,983.71
2022-10-14T02:20:06.810Z,983.71
2022-10-14T02:21:06.799Z,983.70
2022-10-14T02:22:06.787Z,983.69
2022-10-14T02:23:06.778Z,983.69
2022-10-14T02:24:06.762Z,983.68
2022-10-14T02:25:06.768Z,983.67
2022-10-14T02:26:06.745Z,983.66
2022-10-14T02:27:06.737Z,983.66
2022-10-14T02:28:06.723Z,983.66
2022-10-14T02:29:06.725Z,983.65
2022-10-14T02:30:06.705Z,983.64
2022-10-14T02:31:06.696Z,983.64
2022-10-14T02:32:06.689Z,983.62
2022-10-14T02:33:06.678Z,983.62
2022-10-14T02:34:06.672Z,983.62
2022-10-14T02:35:06.653Z,983.61
2022-10-14T02:36:06.639Z,983.61
2022-10-14T02:37:06.631Z,983.60
2022-10-14T02:38:06.614Z,983.59
2022-10-14T02:39:06.621Z,983.57
2022-10-14T02:40:06.595Z,983.54
2022-10-14T02:41:06.586Z,983.53
2022-10-14T02:42:06.574Z,983.52
2022-10-14T02:43:06.566Z,983.51
2022-10-14T02:44:06.553Z,983.50
2022-10-14T02:45:06.552Z,983.50
2022-10-14T02:46:06.532Z,983.49
2022-10-14T02:47:06.534Z,983.49
2022-10-14T02:48:06.510Z,983.48
2022-10-14T02:49:06.504Z,983.48
2022-10-14T02:50:06.504Z,983.47
2022-10-14T02:51:06.488Z,983.47
2022-10-14T02:52:06.465Z,983.46
2022-10-14T02:53:06.459Z,983.44
2022-10-14T02:54:06.446Z,983.43
2022-10-14T02:55:06.456Z,983.42
2022-10-14T02:56:06.434Z,983.41
2022-10-14T02:57:06.431Z,983.39
2022-10-14T02:58:06.407Z,983.37
2022-10-14T02:59:06.399Z,983.36
2022-10-14T03:00:06.384Z,983.35
2022-10-14T03:01:06.377Z,983.34
2022-10-14T03:02:06.403Z,983.34
2022-10-14T03:03:06.368Z,983.34
2022-10-14T03:04:06.338Z,983.34
2022-10-14T03:05:06.331Z,983.34
2022-10-14T03:06:06.314Z,983.34
2022-10-14T03:07:06.370Z,983.34
2022-10-14T03:08:06.296Z,983.33
2022-10-14T03:09:06.298Z,983.33
2022-10-14T03:10:06.277Z,983.33
2022-10-14T03:11:06.268Z,983.32
2022-10-14T03:12:06.264Z,983.32
2022-10-14T03:13:06.248Z,983.32
2022-10-14T03:14:06.234Z,983.31
2022-10-14T03:15:06.225Z,983.32
2022-10-14T03:16:06.223Z,983.33
2022-10-14T03:17:06.206Z,983.33
2022-10-14T03:18:06.207Z,983.33
2022-10-14T03:19:06.182Z,983.32
2022-10-14T03:20:06.171Z,983.32
2022-10-14T03:21:06.159Z,983.32
2022-10-14T03:22:06.147Z,983.33
2022-10-14T03:23:06.140Z,983.33
2022-10-14T03:24:06.138Z,983.34
2022-10-14T03:25:06.126Z,983.34
2022-10-14T03:26:08.519Z,983.35
2022-10-14T03:27:06.099Z,983.36
2022-10-14T03:28:06.084Z,983.37
2022-10-14T03:29:06.109Z,983.37
2022-10-14T03:30:06.080Z,983.37
2022-10-14T03:31:06.072Z,983.37
2022-10-14T03:32:06.042Z,983.37
2022-10-14T03:33:06.031Z,983.36
2022-10-14T03:34:06.027Z,983.35
2022-10-14T03:35:06.015Z,983.35
2022-10-14T03:36:06.010Z,983.34
2022-10-14T03:37:05.988Z,983.33
2022-10-14T03:38:05.976Z,983.33
2022-10-14T03:39:05.976Z,983.32
2022-10-14T03:40:05.955Z,983.32
2022-10-14T03:41:05.962Z,983.33
2022-10-14T03:42:05.956Z,983.32
2022-10-14T03:43:05.929Z,983.31
2022-10-14T03:44:05.913Z,983.29
2022-10-14T03:45:05.907Z,983.28
2022-10-14T03:46:05.891Z,983.26
2022-10-14T03:47:05.892Z,983.24
2022-10-14T03:48:05.872Z,983.22
2022-10-14T03:49:05.869Z,983.21
2022-10-14T03:50:05.852Z,983.21
2022-10-14T03:51:05.841Z,983.22
2022-10-14T03:52:05.829Z,983.22
2022-10-14T03:53:05.831Z,983.22
2022-10-14T03:54:05.807Z,983.22
2022-10-14T03:55:05.801Z,983.21
2022-10-14T03:56:05.786Z,983.21
2022-10-14T03:57:05.777Z,983.22
2022-10-14T03:58:05.763Z,983.21
2022-10-14T03:59:05.770Z,983.20
2022-10-14T04:00:05.744Z,983.20
2022-10-14T04:01:05.743Z,983.19
2022-10-14T04:02:05.787Z,983.18
2022-10-14T04:03:05.734Z,983.17
2022-10-14T04:04:05.698Z,983.16
2022-10-14T04:05:05.690Z,983.15
2022-10-14T04:06:05.689Z,983.15
2022-10-14T04:07:05.672Z,983.15
2022-10-14T04:08:05.659Z,983.14
2022-10-14T04:09:05.660Z,983.13
2022-10-14T04:10:05.636Z,983.12
2022-10-14T04:11:05.630Z,983.13
2022-10-14T04:12:05.617Z,983.12
2022-10-14T04:13:05.613Z,983.11
2022-10-14T04:14:05.594Z,983.08
2022-10-14T04:15:05.586Z,983.06
2022-10-14T04:16:05.577Z,983.04
2022-10-14T04:17:05.560Z,983.04
2022-10-14T04:18:05.554Z,983.04
2022-10-14T04:19:05.548Z,983.03
2022-10-14T04:20:05.534Z,983.04
2022-10-14T04:21:05.520Z,983.05
2022-10-14T04:22:05.511Z,983.05
2022-10-14T04:23:05.505Z,983.04
2022-10-14T04:24:08.415Z,983.05
2022-10-14T04:25:05.484Z,983.05
2022-10-14T04:26:05.467Z,983.05
2022-10-14T04:27:05.452Z,983.05
2022-10-14T04:28:05.445Z,983.05
2022-10-14T04:29:05.449Z,983.04
2022-10-14T04:30:05.426Z,983.04
2022-10-14T04:31:05.416Z,983.05
2022-10-14T04:32:05.404Z,983.05
2022-10-14T04:33:05.402Z,983.04
2022-10-14T04:34:05.393Z,983.03
2022-10-14T04:35:05.385Z,983.02
2022-10-14T04:36:05.363Z,983.01
2022-10-14T04:37:05.349Z,983.01
2022-10-14T04:38:05.362Z,983.01
2022-10-14T04:39:05.327Z,983.00
2022-10-14T04:40:05.315Z,982.99
2022-10-14T04:41:05.307Z,982.97
2022-10-14T04:42:05.299Z,982.95
2022-10-14T04:43:05.282Z,982.93
2022-10-14T04:44:05.290Z,982.93
2022-10-14T04:45:05.260Z,982.92
2022-10-14T04:46:05.254Z,982.91
2022-10-14T04:47:05.244Z,982.90
2022-10-14T04:48:05.237Z,982.90
2022-10-14T04:49:05.232Z,982.91
2022-10-14T04:50:05.259Z,982.91
2022-10-14T04:51:05.199Z,982.92
2022-10-14T04:52:05.191Z,982.92
2022-10-14T04:53:05.176Z,982.90
2022-10-14T04:54:05.180Z,982.89
2022-10-14T04:55:05.153Z,982.86
2022-10-14T04:56:05.149Z,982.84
2022-10-14T04:57:05.135Z,982.83
2022-10-14T04:58:05.126Z,982.83
2022-10-14T04:59:05.133Z,982.83
2022-10-14T05:00:05.106Z,982.83
2022-10-14T05:01:05.105Z,982.82
2022-10-14T05:02:05.258Z,982.81
2022-10-14T05:03:05.073Z,982.80
2022-10-14T05:04:05.062Z,982.80
2022-10-14T05:05:05.048Z,982.81
2022-10-14T05:06:05.040Z,982.81
2022-10-14T05:07:05.063Z,982.81
2022-10-14T05:08:05.029Z,982.80
2022-10-14T05:09:05.006Z,982.80
2022-10-14T05:10:04.996Z,982.79
2022-10-14T05:11:04.997Z,982.77
2022-10-14T05:12:04.923Z,982.77
2022-10-14T05:13:04.921Z,982.76
2022-10-14T05:14:04.922Z,982.75
2022-10-14T05:15:04.890Z,982.76
2022-10-14T05:16:04.938Z,982.78
2022-10-14T05:17:04.905Z,982.79
2022-10-14T05:18:04.888Z,982.79
2022-10-14T05:19:04.907Z,982.79
2022-10-14T05:20:04.903Z,982.78
2022-10-14T05:21:04.887Z,982.78
2022-10-14T05:22:04.876Z,982.77
2022-10-14T05:23:04.811Z,982.78
2022-10-14T05:24:04.804Z,982.78
2022-10-14T05:25:04.782Z,982.78
2022-10-14T05:26:04.773Z,982.79
2022-10-14T05:27:04.768Z,982.80
2022-10-14T05:28:04.753Z,982.80
2022-10-14T05:29:04.751Z,982.80
2022-10-14T05:30:04.735Z,982.79
2022-10-14T05:31:04.723Z,982.77
2022-10-14T05:32:04.713Z,982.76
2022-10-14T05:33:04.722Z,982.75
2022-10-14T05:34:04.694Z,982.76
2022-10-14T05:35:04.687Z,982.75
2022-10-14T05:36:04.692Z,982.76
2022-10-14T05:37:04.672Z,982.76
2022-10-14T05:38:04.651Z,982.77
2022-10-14T05:39:04.635Z,982.77
2022-10-14T05:40:04.717Z,982.78
2022-10-14T05:41:04.614Z,982.78
2022-10-14T05:42:04.607Z,982.79
2022-10-14T05:43:04.603Z,982.80
2022-10-14T05:44:04.582Z,982.79
2022-10-14T05:45:04.569Z,982.78
2022-10-14T05:46:04.561Z,982.79
2022-10-14T05:47:04.550Z,982.79
2022-10-14T05:48:04.542Z,982.80
2022-10-14T05:49:04.535Z,982.81
2022-10-14T05:50:04.531Z,982.82
2022-10-14T05:51:04.506Z,982.82
2022-10-14T05:52:04.500Z,982.82
2022-10-14T05:53:04.509Z,982.82
2022-10-14T05:54:04.482Z,982.83
2022-10-14T05:55:04.466Z,982.83
2022-10-14T05:56:04.489Z,982.83
2022-10-14T05:57:04.445Z,982.84
2022-10-14T05:58:04.436Z,982.84
2022-10-14T05:59:04.425Z,982.85
2022-10-14T06:00:04.416Z,982.87
2022-10-14T06:01:04.400Z,982.88
2022-10-14T06:02:04.424Z,982.88
2022-10-14T06:03:04.407Z,982.88
2022-10-14T06:04:04.401Z,982.88
2022-10-14T06:05:04.388Z,982.87
2022-10-14T06:06:04.356Z,982.86
2022-10-14T06:07:04.340Z,982.86
2022-10-14T06:08:04.336Z,982.86
2022-10-14T06:09:08.973Z,982.86
2022-10-14T06:11:15.132Z,982.85
2022-10-14T06:12:16.096Z,982.85
2022-10-14T06:13:16.083Z,982.84
2022-10-14T06:14:16.079Z,982.85
2022-10-14T06:15:16.064Z,982.86
2022-10-14T06:16:16.077Z,982.87
2022-10-14T06:17:17.631Z,982.88
2022-10-14T06:18:16.032Z,982.88
2022-10-14T06:19:16.022Z,982.87
2022-10-14T06:20:16.044Z,982.86
2022-10-14T06:21:15.999Z,982.85
2022-10-14T06:22:15.991Z,982.85
2022-10-14T06:23:15.977Z,982.84
2022-10-14T06:24:15.987Z,982.83
2022-10-14T06:25:15.953Z,982.83
2022-10-14T06:26:15.968Z,982.83
2022-10-14T06:27:15.928Z,982.83
2022-10-14T06:28:15.977Z,982.84
2022-10-14T06:29:15.910Z,982.84
2022-10-14T06:30:15.902Z,982.85
2022-10-14T06:31:15.913Z,982.85
2022-10-14T06:32:15.881Z,982.86
2022-10-14T06:33:15.891Z,982.85
2022-10-14T06:34:15.858Z,982.85
2022-10-14T06:35:15.845Z,982.83
2022-10-14T06:36:15.861Z,982.82
2022-10-14T06:37:15.822Z,982.82
2022-10-14T06:38:15.818Z,982.81
2022-10-14T06:39:15.831Z,982.81
2022-10-14T06:40:15.793Z,982.80
2022-10-14T06:41:15.779Z,982.80
2022-10-14T06:42:15.768Z,982.80
2022-10-14T06:43:15.754Z,982.80
2022-10-14T06:44:15.748Z,982.81
2022-10-14T06:45:15.800Z,982.81
2022-10-14T06:46:15.728Z,982.81
2022-10-14T06:47:15.712Z,982.82
2022-10-14T06:48:15.706Z,982.82
2022-10-14T06:49:15.717Z,982.82
2022-10-14T06:50:15.692Z,982.82
2022-10-14T06:51:15.679Z,982.82
2022-10-14T06:52:15.659Z,982.81
2022-10-14T06:53:15.648Z,982.81
2022-10-14T06:54:15.670Z,982.81
2022-10-14T06:55:15.667Z,982.81
2022-10-14T06:56:15.626Z,982.81
2022-10-14T06:57:15.615Z,982.80
2022-10-14T06:58:15.607Z,982.80
2022-10-14T06:59:15.582Z,982.79
2022-10-14T07:00:15.595Z,982.78
2022-10-14T07:01:15.684Z,982.78
2022-10-14T07:02:15.553Z,982.78
2022-10-14T07:03:15.560Z,982.79
2022-10-14T07:04:15.530Z,982.79
2022-10-14T07:05:15.537Z,982.79
2022-10-14T07:06:15.513Z,982.79
2022-10-14T07:07:15.492Z,982.79
2022-10-14T07:08:15.891Z,982.80
2022-10-14T07:09:15.472Z,982.79
2022-10-14T07:10:15.481Z,982.78
2022-10-14T07:11:15.449Z,982.78
2022-10-14T07:12:15.447Z,982.77
2022-10-14T07:13:15.432Z,982.76
2022-10-14T07:14:15.419Z,982.76
2022-10-14T07:15:15.427Z,982.76
2022-10-14T07:16:15.398Z,982.77
2022-10-14T07:17:15.415Z,982.78
2022-10-14T07:18:15.376Z,982.78
2022-10-14T07:19:15.364Z,982.78
2022-10-14T07:20:15.387Z,982.79
2022-10-14T07:21:15.341Z,982.79
2022-10-14T07:22:15.337Z,982.79
2022-10-14T07:23:15.317Z,982.80
2022-10-14T07:24:15.311Z,982.80
2022-10-14T07:25:15.301Z,982.81
2022-10-14T07:26:15.305Z,982.81
2022-10-14T07:27:15.281Z,982.82
2022-10-14T07:28:15.344Z,982.85
2022-10-14T07:29:15.262Z,982.86
2022-10-14T07:30:17.483Z,982.88
2022-10-14T07:31:15.242Z,982.88
2022-10-14T07:32:15.483Z,982.88
2022-10-14T07:33:15.230Z,982.86
2022-10-14T07:34:15.220Z,982.86
2022-10-14T07:35:15.198Z,982.86
2022-10-14T07:36:17.294Z,982.86
2022-10-14T07:37:15.240Z,982.86
2022-10-14T07:38:15.158Z,982.87
2022-10-14T07:39:15.168Z,982.87
2022-10-14T07:40:15.137Z,982.88
2022-10-14T07:41:15.126Z,982.88
2022-10-14T07:42:15.407Z,982.88
2022-10-14T07:43:15.278Z,982.88
2022-10-14T07:44:15.095Z,982.89
2022-10-14T07:45:15.089Z,982.91
2022-10-14T07:46:15.076Z,982.92
2022-10-14T07:47:15.347Z,982.93
2022-10-14T07:48:17.072Z,982.94
2022-10-14T07:49:15.062Z,982.95
2022-10-14T07:50:15.031Z,982.96
2022-10-14T07:51:15.035Z,982.97
2022-10-14T07:52:15.006Z,982.98
2022-10-14T07:53:14.998Z,982.99
2022-10-14T07:54:15.013Z,982.99
2022-10-14T07:55:14.975Z,983.00
2022-10-14T07:56:14.962Z,983.00
2022-10-14T07:57:14.961Z,983.00
2022-10-14T07:58:14.941Z,983.01
2022-10-14T07:59:14.933Z,983.02
2022-10-14T08:00:14.930Z,983.03
2022-10-14T08:01:14.997Z,983.03
2022-10-14T08:02:14.953Z,983.04
2022-10-14T08:03:14.898Z,983.04
2022-10-14T08:04:14.875Z,983.04
2022-10-14T08:06:13.859Z,983.03
2022-10-14T08:07:14.848Z,983.03
2022-10-14T08:08:14.832Z,983.01
2022-10-14T08:09:14.892Z,982.99
2022-10-14T08:10:14.822Z,982.98
2022-10-14T08:11:14.812Z,982.97
2022-10-14T08:12:14.793Z,982.95
2022-10-14T08:13:14.792Z,982.94
2022-10-14T08:14:14.767Z,982.94
2022-10-14T08:15:14.762Z,982.94
2022-10-14T08:16:14.755Z,982.94
2022-10-14T08:17:14.740Z,982.95
2022-10-14T08:18:14.727Z,982.95
2022-10-14T08:19:15.048Z,982.94
2022-10-14T08:20:14.864Z,982.94
2022-10-14T08:21:14.742Z,982.95
2022-10-14T08:22:14.709Z,982.93
2022-10-14T08:23:17.490Z,982.92
2022-10-14T08:24:14.671Z,982.92
2022-10-14T08:25:14.654Z,982.90
2022-10-14T08:26:14.642Z,982.90
2022-10-14T08:27:14.632Z,982.90
2022-10-14T08:28:14.669Z,982.89
2022-10-14T08:29:14.629Z,982.89
2022-10-14T08:30:14.598Z,982.87
2022-10-14T08:31:14.634Z,982.87
2022-10-14T08:32:14.576Z,982.86
2022-10-14T08:33:14.575Z,982.85
2022-10-14T08:34:14.553Z,982.82
2022-10-14T08:35:14.558Z,982.80
2022-10-14T08:36:14.530Z,982.80
2022-10-14T08:37:14.526Z,982.79
2022-10-14T08:38:14.510Z,982.78
2022-10-14T08:39:14.505Z,982.77
2022-10-14T08:40:14.502Z,982.76
2022-10-14T08:41:14.496Z,982.77
2022-10-14T08:42:14.468Z,982.78
2022-10-14T08:43:14.581Z,982.78
2022-10-14T08:44:14.506Z,982.78
2022-10-14T08:45:14.457Z,982.78
2022-10-14T08:46:14.423Z,982.76
2022-10-14T08:47:14.419Z,982.74
2022-10-14T08:48:14.406Z,982.73
2022-10-14T08:49:14.397Z,982.72
2022-10-14T08:50:14.379Z,982.71
2022-10-14T08:51:14.395Z,982.71
2022-10-14T08:52:14.361Z,982.71
2022-10-14T08:53:14.359Z,982.70
2022-10-14T08:54:14.338Z,982.70
2022-10-14T08:55:15.309Z,982.70
2022-10-14T08:56:14.333Z,982.71
2022-10-14T08:57:14.309Z,982.71
2022-10-14T08:58:14.414Z,982.71
2022-10-14T08:59:14.291Z,982.69
2022-10-14T09:00:14.270Z,982.67
2022-10-14T09:01:14.278Z,982.66
2022-10-14T09:02:14.261Z,982.64
2022-10-14T09:03:14.275Z,982.65
2022-10-14T09:04:14.283Z,982.64
2022-10-14T09:05:14.238Z,982.63
2022-10-14T09:06:14.219Z,982.63
2022-10-14T09:07:14.195Z,982.64
2022-10-14T09:08:14.199Z,982.64
2022-10-14T09:09:14.177Z,982.65
2022-10-14T09:10:14.175Z,982.64
2022-10-14T09:11:14.165Z,982.65
2022-10-14T09:12:13.137Z,982.65
2022-10-14T09:13:14.130Z,982.65
2022-10-14T09:14:14.116Z,982.66
2022-10-14T09:15:14.111Z,982.65
2022-10-14T09:16:14.096Z,982.64
2022-10-14T09:17:14.100Z,982.63
2022-10-14T09:18:14.071Z,982.62
2022-10-14T09:19:14.068Z,982.61
2022-10-14T09:20:14.077Z,982.61
2022-10-14T09:21:22.719Z,982.61
2022-10-14T09:22:14.045Z,982.61
2022-10-14T09:23:14.017Z,982.62
2022-10-14T09:24:14.005Z,982.61
2022-10-14T09:25:14.017Z,982.63
2022-10-14T09:26:13.989Z,982.61
2022-10-14T09:27:13.992Z,982.61
2022-10-14T09:28:14.251Z,982.59
2022-10-14T09:29:13.957Z,982.59
2022-10-14T09:30:13.942Z,982.59
2022-10-14T09:31:13.939Z,982.58
2022-10-14T09:32:13.940Z,982.58
2022-10-14T09:33:13.913Z,982.58
2022-10-14T09:34:13.904Z,982.59
2022-10-14T09:35:13.888Z,982.59
2022-10-14T09:36:13.872Z,982.60
2022-10-14T09:37:13.877Z,982.60
2022-10-14T09:38:13.852Z,982.61
2022-10-14T09:39:13.845Z,982.61
2022-10-14T09:40:13.832Z,982.61
2022-10-14T09:41:13.823Z,982.58
2022-10-14T09:42:13.810Z,982.58
2022-10-14T09:43:13.824Z,982.58
2022-10-14T09:44:13.787Z,982.59
2022-10-14T09:45:13.781Z,982.60
2022-10-14T09:46:13.767Z,982.60
2022-10-14T09:47:13.756Z,982.57
2022-10-14T09:48:13.763Z,982.56
2022-10-14T09:49:13.744Z,982.55
2022-10-14T09:50:13.728Z,982.54
2022-10-14T09:51:13.719Z,982.54
2022-10-14T09:52:13.699Z,982.54
2022-10-14T09:53:13.731Z,982.55
2022-10-14T09:54:13.690Z,982.56
2022-10-14T09:55:13.673Z,982.56
2022-10-14T09:56:13.660Z,982.57
2022-10-14T09:57:13.653Z,982.57
2022-10-14T09:58:13.636Z,982.57
2022-10-14T09:59:13.652Z,982.58
2022-10-14T10:00:13.613Z,982.59
2022-10-14T10:01:13.607Z,982.59
2022-10-14T10:02:13.592Z,982.58
2022-10-14T10:03:17.076Z,982.55
2022-10-14T10:04:13.605Z,982.53
2022-10-14T10:05:13.563Z,982.54
2022-10-14T10:06:13.649Z,982.49
2022-10-14T10:07:13.539Z,982.47
2022-10-14T10:08:13.533Z,982.46
2022-10-14T10:09:13.518Z,982.44
2022-10-14T10:10:13.520Z,982.43
2022-10-14T10:11:13.499Z,982.39
2022-10-14T10:12:13.484Z,982.38
2022-10-14T10:13:13.474Z,982.37
2022-10-14T10:14:13.472Z,982.36
2022-10-14T10:15:13.478Z,982.35
2022-10-14T10:16:13.462Z,982.33
2022-10-14T10:17:13.456Z,982.34
2022-10-14T10:18:13.415Z,982.33
2022-10-14T10:19:13.406Z,982.32
2022-10-14T10:20:13.400Z,982.32
2022-10-14T10:21:13.436Z,982.31
2022-10-14T10:22:13.398Z,982.30
2022-10-14T10:23:13.389Z,982.26
2022-10-14T10:24:13.351Z,982.25
2022-10-14T10:25:13.343Z,982.23
2022-10-14T10:26:13.328Z,982.19
2022-10-14T10:27:13.340Z,982.17
2022-10-14T10:28:13.311Z,982.13
2022-10-14T10:29:13.304Z,982.10
2022-10-14T10:30:13.285Z,982.08
2022-10-14T10:31:13.277Z,982.06
2022-10-14T10:32:13.304Z,982.04
2022-10-14T10:33:13.276Z,982.00
2022-10-14T10:34:13.276Z,981.97
2022-10-14T10:35:13.247Z,981.94
2022-10-14T10:36:13.256Z,981.93
2022-10-14T10:37:13.223Z,981.90
2022-10-14T10:38:13.198Z,981.88
2022-10-14T10:39:13.195Z,981.87
2022-10-14T10:40:13.201Z,981.86
2022-10-14T10:41:13.168Z,981.87
2022-10-14T10:42:13.153Z,981.87
2022-10-14T10:43:13.149Z,981.83
2022-10-14T10:44:13.178Z,981.84
2022-10-14T10:45:13.179Z,981.82
2022-10-14T10:46:13.132Z,981.80
2022-10-14T10:47:13.162Z,981.79
2022-10-14T10:48:13.115Z,981.78
2022-10-14T10:49:13.133Z,981.77
2022-10-14T10:50:13.122Z,981.77
2022-10-14T10:51:13.101Z,981.74
2022-10-14T10:52:16.146Z,981.72
2022-10-14T10:53:13.089Z,981.70
2022-10-14T10:54:13.052Z,981.70
2022-10-14T10:55:13.067Z,981.68
2022-10-14T10:56:13.053Z,981.69
2022-10-14T10:57:13.075Z,981.65
2022-10-14T10:58:13.035Z,981.66
2022-10-14T10:59:13.068Z,981.64
2022-10-14T11:00:13.019Z,981.66
2022-10-14T11:01:13.023Z,981.66
2022-10-14T11:02:12.968Z,981.67
2022-10-14T11:03:13.014Z,981.69
2022-10-14T11:04:12.943Z,981.70
2022-10-14T11:05:12.963Z,981.71
2022-10-14T11:06:12.934Z,981.71
2022-10-14T11:07:12.967Z,981.71
2022-10-14T11:08:12.905Z,981.66
2022-10-14T11:09:12.945Z,981.62
2022-10-14T11:10:12.881Z,981.60
2022-10-14T11:11:12.901Z,981.58
2022-10-14T11:12:12.870Z,981.54
2022-10-14T11:13:12.864Z,981.49
2022-10-14T11:14:12.838Z,981.45
2022-10-14T11:15:12.921Z,981.40
2022-10-14T11:16:12.816Z,981.38
2022-10-14T11:17:12.837Z,981.33
2022-10-14T11:18:12.826Z,981.32
2022-10-14T11:19:14.610Z,981.30
2022-10-14T11:20:12.804Z,981.29
2022-10-14T11:21:12.791Z,981.30
2022-10-14T11:22:12.751Z,981.26
2022-10-14T11:23:12.791Z,981.26
2022-10-14T11:24:12.755Z,981.27
2022-10-14T11:25:12.756Z,981.30
2022-10-14T11:26:12.733Z,981.26
2022-10-14T11:27:12.755Z,981.26
2022-10-14T11:28:12.681Z,981.24
2022-10-14T11:29:12.667Z,981.22
2022-10-14T11:30:12.655Z,981.20
2022-10-14T11:31:12.649Z,981.21
2022-10-14T11:32:12.678Z,981.20
2022-10-14T11:33:12.659Z,981.24
2022-10-14T11:34:12.590Z,981.25
2022-10-14T11:35:12.583Z,981.25
2022-10-14T11:36:12.577Z,981.26
2022-10-14T11:37:12.561Z,981.26
2022-10-14T11:38:12.568Z,981.25
2022-10-14T11:39:12.538Z,981.26
2022-10-14T11:40:12.522Z,981.25
2022-10-14T11:41:12.517Z,981.22
2022-10-14T11:42:12.522Z,981.22
2022-10-14T11:43:12.493Z,981.18
2022-10-14T11:44:12.503Z,981.20
2022-10-14T11:45:14.203Z,981.17
2022-10-14T11:46:12.478Z,981.18
2022-10-14T11:47:12.486Z,981.16
2022-10-14T11:48:12.443Z,981.16
2022-10-14T11:49:12.431Z,981.16
2022-10-14T11:50:12.466Z,981.13
2022-10-14T11:51:12.427Z,981.14
2022-10-14T11:52:12.400Z,981.11
2022-10-14T11:53:12.386Z,981.12
2022-10-14T11:54:12.401Z,981.13
2022-10-14T11:55:14.602Z,981.12
2022-10-14T11:56:12.376Z,981.13
2022-10-14T11:57:12.341Z,981.12
2022-10-14T11:58:12.364Z,981.11
2022-10-14T11:59:12.330Z,981.09
2022-10-14T12:00:12.349Z,981.08
2022-10-14T12:01:12.300Z,981.05
2022-10-14T12:02:12.375Z,981.02
2022-10-14T12:03:12.342Z,981.02
2022-10-14T12:04:12.289Z,980.99
2022-10-14T12:05:12.260Z,980.98
2022-10-14T12:06:12.274Z,980.95
2022-10-14T12:07:12.237Z,980.96
2022-10-14T12:08:12.235Z,980.94
2022-10-14T12:09:12.219Z,980.92
2022-10-14T12:10:12.231Z,980.89
2022-10-14T12:11:12.193Z,980.87
2022-10-14T12:12:12.183Z,980.85
2022-10-14T12:13:12.268Z,980.84
2022-10-14T12:14:12.166Z,980.84
2022-10-14T12:15:12.177Z,980.83
2022-10-14T12:16:12.151Z,980.85
2022-10-14T12:17:14.729Z,980.87
2022-10-14T12:18:12.136Z,980.88
2022-10-14T12:19:12.107Z,980.88
2022-10-14T12:20:12.127Z,980.87
2022-10-14T12:21:12.088Z,980.85
2022-10-14T12:22:12.079Z,980.83
2022-10-14T12:23:12.083Z,980.79
2022-10-14T12:24:12.062Z,980.75
2022-10-14T12:25:12.076Z,980.72
2022-10-14T12:26:12.042Z,980.71
2022-10-14T12:27:12.022Z,980.71
2022-10-14T12:28:12.013Z,980.71
2022-10-14T12:29:12.084Z,980.73
2022-10-14T12:30:11.994Z,980.72